Time;durP1;ratioP1;P1;durP2;ratioP2;P2;SDS_P1;SDS_P2;PMS_P1;PMS_P2;Temp;Humidity;BMP_temperature;BMP_pressure;BME280_temperature;BME280_humidity;BME280_pressure;Samples;Min_cycle;Max_cycle;Signal;HPM_P1;HPM_P2
2022/10/18 00:01:04;;;;;;;124.75;21.98;;;12.60;99.90;;;;;;5071896;28;20037;-80
2022/10/18 00:03:31;;;;;;;270.08;34.53;;;12.60;99.90;;;;;;5072655;28;20089;-80
2022/10/18 00:05:57;;;;;;;;;;;12.70;99.90;;;;;;5072512;28;20043;-80
2022/10/18 00:08:23;;;;;;;282.65;35.28;;;12.70;99.90;;;;;;5072335;28;19920;-79
2022/10/18 00:10:49;;;;;;;246.98;32.75;;;12.70;99.90;;;;;;5055776;28;20584;-80
2022/10/18 00:13:15;;;;;;;206.85;29.35;;;12.70;99.90;;;;;;5072151;28;20036;-80
2022/10/18 00:15:51;;;;;;;189.50;26.23;;;12.70;99.90;;;;;;5055249;28;20079;-80
2022/10/18 00:18:18;;;;;;;259.85;34.83;;;12.70;99.90;;;;;;5072049;28;20036;-80
2022/10/18 00:20:43;;;;;;;109.93;21.85;;;12.70;99.90;;;;;;5072189;28;20032;-80
2022/10/18 00:23:09;;;;;;;204.07;28.20;;;12.60;99.90;;;;;;5055311;28;20086;-80
2022/10/18 00:25:35;;;;;;;236.00;30.60;;;12.70;99.90;;;;;;5072077;28;20373;-80
2022/10/18 00:28:00;;;;;;;188.02;31.48;;;12.60;99.90;;;;;;5055458;28;20040;-80
2022/10/18 00:30:26;;;;;;;200.67;30.93;;;12.60;99.90;;;;;;5055067;28;20051;-79
2022/10/18 00:32:52;;;;;;;127.85;24.48;;;12.60;99.90;;;;;;5071548;28;20283;-80
2022/10/18 00:35:17;;;;;;;106.90;22.42;;;12.60;99.90;;;;;;5054940;28;20044;-80
2022/10/18 00:37:43;;;;;;;195.67;26.03;;;12.60;99.90;;;;;;5055139;28;20412;-79
2022/10/18 00:40:09;;;;;;;103.20;24.13;;;12.60;99.90;;;;;;5071385;28;20306;-80
2022/10/18 00:42:36;;;;;;;92.13;22.05;;;12.50;99.90;;;;;;5071804;28;20033;-80
2022/10/18 00:45:25;;;;;;;210.38;27.00;;;12.50;99.90;;;;;;5052301;28;20044;-80
2022/10/18 00:47:57;;;;;;;63.90;19.20;;;12.40;99.90;;;;;;5087654;28;20519;-80
2022/10/18 00:50:24;;;;;;;75.45;19.83;;;12.40;99.90;;;;;;5071594;28;20037;-80
2022/10/18 00:52:57;;;;;;;67.30;19.58;;;12.40;99.90;;;;;;5071616;28;20055;-81
2022/10/18 00:55:24;;;;;;;253.63;27.63;;;12.40;99.90;;;;;;5055256;28;20411;-80
2022/10/18 00:57:50;;;;;;;89.90;20.90;;;12.40;99.90;;;;;;5068616;28;20063;-80
2022/10/18 01:00:17;;;;;;;442.10;39.42;;;12.40;99.90;;;;;;5070740;28;20036;-80
2022/10/18 01:02:45;;;;;;;281.83;25.88;;;12.30;99.90;;;;;;5071230;28;20115;-80
2022/10/18 01:05:13;;;;;;;416.80;37.58;;;12.30;99.90;;;;;;5054223;28;20044;-80
2022/10/18 01:07:52;;;;;;;251.20;26.85;;;12.30;99.90;;;;;;5054566;28;20040;-80
2022/10/18 01:10:24;;;;;;;226.93;21.27;;;12.20;99.90;;;;;;5070472;28;20090;-80
2022/10/18 01:13:16;;;;;;;64.82;15.95;;;12.20;99.90;;;;;;5070442;28;20058;-81
2022/10/18 01:16:10;;;;;;;205.52;20.75;;;12.20;99.90;;;;;;5069191;28;20094;-81
2022/10/18 01:18:56;;;;;;;246.63;21.65;;;12.10;99.90;;;;;;5054104;28;20103;-81
2022/10/18 01:21:31;;;;;;;217.10;22.85;;;12.10;99.90;;;;;;5070819;28;20541;-80
2022/10/18 01:24:18;;;;;;;203.60;16.45;;;12.00;99.90;;;;;;5070479;28;20040;-81
2022/10/18 01:27:06;;;;;;;230.38;19.65;;;12.00;99.90;;;;;;5053220;28;20032;-80
2022/10/18 01:29:59;;;;;;;259.08;23.83;;;11.90;99.90;;;;;;5054073;28;20044;-80
2022/10/18 01:32:40;;;;;;;352.05;30.02;;;11.90;99.90;;;;;;5052546;28;20033;-80
2022/10/18 01:35:12;;;;;;;233.68;19.00;;;11.90;99.90;;;;;;5069208;28;20036;-80
2022/10/18 01:37:40;;;;;;;230.38;20.50;;;11.90;99.90;;;;;;5069222;28;20040;-80
2022/10/18 01:40:08;;;;;;;209.07;18.42;;;11.90;99.90;;;;;;5069421;28;20050;-80
2022/10/18 01:42:34;;;;;;;238.85;21.88;;;11.90;99.90;;;;;;5070114;28;20048;-80
2022/10/18 01:45:01;;;;;;;228.02;20.23;;;11.90;99.90;;;;;;5054150;28;20051;-80
2022/10/18 01:47:27;;;;;;;212.68;20.98;;;12.00;99.90;;;;;;5053418;28;20048;-80
2022/10/18 01:50:02;;;;;;;141.50;17.15;;;12.00;99.90;;;;;;5070251;28;20511;-80
2022/10/18 01:52:28;;;;;;;301.98;26.63;;;12.00;99.90;;;;;;5070128;28;20068;-80
2022/10/18 01:54:54;;;;;;;151.10;16.45;;;12.10;99.90;;;;;;5070166;28;20064;-80
2022/10/18 01:57:29;;;;;;;;;;;12.00;99.90;;;;;;5054201;28;20165;-81
2022/10/18 01:59:58;;;;;;;260.35;23.23;;;12.00;99.90;;;;;;5068131;28;20429;-81
2022/10/18 02:02:39;;;;;;;204.52;20.33;;;12.00;99.90;;;;;;5053406;28;20032;-81
2022/10/18 02:05:26;;;;;;;234.90;26.08;;;12.00;99.90;;;;;;5070797;28;20074;-80
2022/10/18 02:08:27;;;;;;;268.73;25.25;;;12.00;99.90;;;;;;5086765;28;20044;-81
2022/10/18 02:10:59;;;;;;;250.75;24.63;;;12.00;99.90;;;;;;5068643;28;20480;-80
2022/10/18 02:13:31;;;;;;;286.63;29.85;;;12.00;99.90;;;;;;5070073;28;20047;-80
2022/10/18 02:16:03;;;;;;;277.58;31.48;;;12.10;99.90;;;;;;5068260;28;20037;-80
2022/10/18 02:18:37;;;;;;;457.77;44.33;;;12.20;99.90;;;;;;5070069;28;20048;-80
2022/10/18 02:21:06;;;;;;;407.45;41.83;;;12.20;99.90;;;;;;5068607;28;20089;-80
2022/10/18 02:23:33;;;;;;;298.67;33.53;;;12.20;99.90;;;;;;5037788;28;20052;-80
2022/10/18 02:25:59;;;;;;;362.20;37.42;;;12.20;99.90;;;;;;5053431;28;20403;-80
2022/10/18 02:28:25;;;;;;;332.95;33.63;;;12.30;99.90;;;;;;5053718;28;20042;-80
2022/10/18 02:31:16;;;;;;;331.10;31.10;;;12.30;99.90;;;;;;5069968;28;20041;-80
2022/10/18 02:33:59;;;;;;;360.13;40.15;;;12.30;99.90;;;;;;5070213;28;20712;-80
2022/10/18 02:36:41;;;;;;;252.88;32.10;;;12.40;99.90;;;;;;5069921;28;20400;-81
2022/10/18 02:39:13;;;;;;;414.20;43.70;;;12.40;99.90;;;;;;5070170;28;20045;-80
2022/10/18 02:41:39;;;;;;;343.58;35.45;;;12.40;99.90;;;;;;5069759;28;20040;-80
2022/10/18 02:44:05;;;;;;;242.55;29.75;;;12.40;99.90;;;;;;5053769;28;20400;-80
2022/10/18 02:46:30;;;;;;;189.95;31.70;;;12.40;99.90;;;;;;5053476;28;20040;-80
2022/10/18 02:48:56;;;;;;;251.38;29.88;;;12.40;99.90;;;;;;5070414;28;20121;-80
2022/10/18 02:51:22;;;;;;;356.35;40.40;;;12.50;99.90;;;;;;5069355;28;20043;-80
2022/10/18 02:53:48;;;;;;;276.20;34.95;;;12.50;99.90;;;;;;5053581;28;20044;-80
2022/10/18 02:56:13;;;;;;;345.30;37.43;;;12.50;99.90;;;;;;5069968;28;20033;-81
2022/10/18 02:58:39;;;;;;;345.27;38.28;;;12.50;99.90;;;;;;5053487;28;20040;-80
2022/10/18 03:01:05;;;;;;;233.73;31.23;;;12.50;99.90;;;;;;5053236;28;20486;-80
2022/10/18 03:03:30;;;;;;;194.60;30.43;;;12.50;99.90;;;;;;5052794;28;20887;-80
2022/10/18 03:05:56;;;;;;;375.23;43.77;;;12.50;99.90;;;;;;5069299;28;20336;-80
2022/10/18 03:08:22;;;;;;;317.63;40.05;;;12.60;99.90;;;;;;5052843;28;20040;-80
2022/10/18 03:10:48;;;;;;;154.05;27.13;;;12.50;99.90;;;;;;5069399;28;20040;-81
2022/10/18 03:13:13;;;;;;;170.02;30.23;;;12.60;99.90;;;;;;5069407;28;20120;-81
2022/10/18 03:15:39;;;;;;;229.95;30.95;;;12.50;99.90;;;;;;5053094;28;20041;-80
2022/10/18 03:18:05;;;;;;;199.65;28.95;;;12.60;99.90;;;;;;5070043;28;20040;-80
2022/10/18 03:20:31;;;;;;;238.05;31.45;;;12.60;99.90;;;;;;5017668;28;20520;-80
2022/10/18 03:22:57;;;;;;;174.77;26.55;;;12.60;99.90;;;;;;5069691;28;20135;-80
2022/10/18 03:25:23;;;;;;;279.40;33.83;;;12.60;99.90;;;;;;5053149;28;20162;-80
2022/10/18 03:27:48;;;;;;;248.83;33.63;;;12.60;99.90;;;;;;5069510;28;20286;-80
2022/10/18 03:30:14;;;;;;;188.37;32.70;;;12.60;99.90;;;;;;5052879;28;20318;-80
2022/10/18 03:32:40;;;;;;;112.78;24.67;;;12.60;99.90;;;;;;5069632;28;20051;-81
2022/10/18 03:35:08;;;;;;;331.38;40.28;;;12.60;99.90;;;;;;5053037;28;20040;-80
2022/10/18 03:37:34;;;;;;;137.88;26.17;;;12.60;99.90;;;;;;5071090;28;20059;-80
2022/10/18 03:40:00;;;;;;;134.88;25.65;;;12.60;99.90;;;;;;5072981;28;20106;-80
2022/10/18 03:42:25;;;;;;;131.25;23.75;;;12.60;99.90;;;;;;5072710;28;20036;-81
2022/10/18 03:44:51;;;;;;;142.87;25.90;;;12.50;99.90;;;;;;5039734;28;20059;-80
2022/10/18 03:47:17;;;;;;;168.37;26.97;;;12.50;99.90;;;;;;5072805;28;20279;-80
2022/10/18 03:49:42;;;;;;;223.95;31.58;;;12.50;99.90;;;;;;5073018;28;20047;-80
2022/10/18 03:52:08;;;;;;;217.43;29.63;;;12.50;99.90;;;;;;5056237;28;20119;-80
2022/10/18 03:54:34;;;;;;;188.90;28.58;;;12.50;99.90;;;;;;5072365;28;20310;-80
2022/10/18 03:56:59;;;;;;;147.38;26.15;;;12.50;99.90;;;;;;5072867;28;20488;-80
2022/10/18 03:59:25;;;;;;;165.90;28.90;;;12.50;99.90;;;;;;5055958;28;20112;-80
2022/10/18 04:01:51;;;;;;;166.93;27.87;;;12.50;99.90;;;;;;5056112;28;20037;-80
2022/10/18 04:04:16;;;;;;;152.33;26.10;;;12.50;99.90;;;;;;5072575;28;20286;-80
2022/10/18 04:06:42;;;;;;;157.25;26.23;;;12.50;99.90;;;;;;5055329;28;20033;-80
2022/10/18 04:09:09;;;;;;;224.47;31.13;;;12.50;99.90;;;;;;5055973;28;20048;-80
2022/10/18 04:11:35;;;;;;;243.20;29.83;;;12.50;99.90;;;;;;5072089;28;20295;-80
2022/10/18 04:14:00;;;;;;;182.25;27.08;;;12.50;99.90;;;;;;5055961;28;20037;-82
2022/10/18 04:16:26;;;;;;;140.27;22.92;;;12.40;99.90;;;;;;5071996;28;20040;-80
2022/10/18 04:18:52;;;;;;;118.53;22.55;;;12.40;99.90;;;;;;5039107;28;20427;-82
2022/10/18 04:21:17;;;;;;;207.82;28.02;;;12.40;99.90;;;;;;5056031;28;20499;-82
2022/10/18 04:23:45;;;;;;;117.57;22.35;;;12.40;99.90;;;;;;5071960;28;20036;-81
2022/10/18 04:26:11;;;;;;;196.15;30.77;;;12.40;99.90;;;;;;5055400;28;20044;-80
2022/10/18 04:28:38;;;;;;;139.20;23.57;;;12.30;99.90;;;;;;5054710;28;20036;-80
2022/10/18 04:31:05;;;;;;;148.40;25.20;;;12.30;99.90;;;;;;5055772;28;20052;-78
2022/10/18 04:33:31;;;;;;;183.15;26.63;;;12.30;99.90;;;;;;5071134;28;20040;-78
2022/10/18 04:35:56;;;;;;;133.52;25.27;;;12.30;99.90;;;;;;5071063;28;20040;-78
2022/10/18 04:38:22;;;;;;;182.60;25.45;;;12.30;99.90;;;;;;5054116;28;20048;-78
2022/10/18 04:40:48;;;;;;;138.35;23.40;;;12.30;99.90;;;;;;5070976;28;20068;-78
2022/10/18 04:43:14;;;;;;;125.05;23.77;;;12.30;99.90;;;;;;5054597;28;20459;-77
2022/10/18 04:45:43;;;;;;;121.18;24.02;;;12.20;99.90;;;;;;5054545;28;20511;-78
2022/10/18 04:48:08;;;;;;;110.47;20.85;;;12.20;99.90;;;;;;5068005;28;20476;-79
2022/10/18 04:50:34;;;;;;;274.30;32.33;;;12.20;99.90;;;;;;5053550;28;20044;-79
2022/10/18 04:52:59;;;;;;;114.32;22.00;;;12.20;99.90;;;;;;5070942;28;20283;-80
2022/10/18 04:55:25;;;;;;;133.80;21.65;;;12.20;99.90;;;;;;5070989;28;20094;-80
2022/10/18 04:57:52;;;;;;;244.30;28.93;;;12.20;99.90;;;;;;5053425;28;20086;-78
2022/10/18 05:00:18;;;;;;;181.88;24.17;;;12.20;99.90;;;;;;5071526;28;20291;-79
2022/10/18 05:02:44;;;;;;;138.65;19.90;;;12.20;99.90;;;;;;5054318;28;20036;-78
2022/10/18 05:05:09;;;;;;;132.57;20.73;;;12.20;99.90;;;;;;5071455;28;20052;-78
2022/10/18 05:07:35;;;;;;;239.97;28.40;;;12.20;99.90;;;;;;5070934;28;20041;-78
2022/10/18 05:10:01;;;;;;;246.50;30.08;;;12.10;99.90;;;;;;5071002;28;20370;-78
2022/10/18 05:12:26;;;;;;;262.35;28.33;;;12.10;99.90;;;;;;5071169;28;20044;-78
2022/10/18 05:14:52;;;;;;;157.40;20.55;;;12.10;99.90;;;;;;5070541;28;20040;-78
2022/10/18 05:17:18;;;;;;;315.05;30.77;;;12.10;99.90;;;;;;5071564;28;20037;-79
2022/10/18 05:19:43;;;;;;;194.03;23.67;;;12.00;99.90;;;;;;5070872;28;20040;-78
2022/10/18 05:22:09;;;;;;;194.17;21.93;;;12.00;99.90;;;;;;5054395;28;20632;-78
2022/10/18 05:24:35;;;;;;;107.07;18.40;;;12.00;99.90;;;;;;5071063;28;20287;-78
2022/10/18 05:27:00;;;;;;;127.80;19.40;;;12.00;99.90;;;;;;5054332;28;20366;-78
2022/10/18 05:29:26;;;;;;;167.00;20.23;;;12.00;99.90;;;;;;5036829;28;20779;-78
2022/10/18 05:31:52;;;;;;;135.38;17.98;;;11.90;99.90;;;;;;5054205;28;20494;-78
2022/10/18 05:34:19;;;;;;;170.33;19.80;;;11.90;99.90;;;;;;5054502;28;20044;-78
2022/10/18 05:36:45;;;;;;;266.10;26.90;;;11.90;99.90;;;;;;5070369;28;20290;-78
2022/10/18 05:39:11;;;;;;;191.60;20.13;;;11.80;99.90;;;;;;5053635;28;20040;-77
2022/10/18 05:41:36;;;;;;;234.48;19.63;;;11.80;99.90;;;;;;5070361;28;20170;-78
2022/10/18 05:44:04;;;;;;;194.90;17.33;;;11.80;99.90;;;;;;5037580;28;20064;-78
2022/10/18 05:46:30;;;;;;;165.50;17.45;;;11.80;99.90;;;;;;5070224;28;20044;-77
2022/10/18 05:48:56;;;;;;;324.40;26.45;;;11.80;99.90;;;;;;5053947;28;20036;-78
2022/10/18 05:51:21;;;;;;;375.87;28.20;;;11.70;99.90;;;;;;5070593;28;20052;-78
2022/10/18 05:53:47;;;;;;;316.93;20.93;;;11.70;99.90;;;;;;5070070;28;20294;-77
2022/10/18 05:56:13;;;;;;;333.23;24.55;;;11.70;99.90;;;;;;5053819;28;20032;-77
2022/10/18 05:58:40;;;;;;;161.90;14.65;;;11.60;99.90;;;;;;5069945;28;20040;-78
2022/10/18 06:01:07;;;;;;;223.20;18.25;;;11.60;99.90;;;;;;5049289;28;20044;-79
2022/10/18 06:03:33;;;;;;;270.10;21.80;;;11.60;99.90;;;;;;5053522;28;20044;-78
2022/10/18 06:06:05;;;;;;;273.48;22.08;;;11.50;99.90;;;;;;5036994;28;20111;-78
2022/10/18 06:08:32;;;;;;;203.50;19.80;;;11.50;99.90;;;;;;5070172;28;20051;-78
2022/10/18 06:10:57;;;;;;;214.32;17.23;;;11.50;99.90;;;;;;5070397;28;20047;-78
2022/10/18 06:13:23;;;;;;;228.00;17.70;;;11.40;99.90;;;;;;5070145;28;20068;-77
2022/10/18 06:15:49;;;;;;;259.27;17.90;;;11.40;99.90;;;;;;5069665;28;20127;-77
2022/10/18 06:18:15;;;;;;;263.83;18.05;;;11.40;99.90;;;;;;5070280;28;20101;-77
2022/10/18 06:20:40;;;;;;;186.63;14.57;;;11.30;99.90;;;;;;5069652;28;20044;-77
2022/10/18 06:23:06;;;;;;;260.33;18.40;;;11.30;99.90;;;;;;5035304;28;20047;-77
2022/10/18 06:25:32;;;;;;;206.20;14.70;;;11.20;99.90;;;;;;5053516;28;20059;-78
2022/10/18 06:27:57;;;;;;;243.33;16.93;;;11.20;99.90;;;;;;5053201;28;20335;-77
2022/10/18 06:30:23;;;;;;;222.30;14.93;;;11.20;99.90;;;;;;5070062;28;20291;-77
2022/10/18 06:32:49;;;;;;;273.27;18.27;;;11.10;99.90;;;;;;5052827;28;20032;-77
2022/10/18 06:35:14;;;;;;;140.82;12.38;;;11.20;99.90;;;;;;5036089;28;20303;-77
2022/10/18 06:37:40;;;;;;;190.95;12.70;;;11.10;99.90;;;;;;5052429;28;20036;-77
2022/10/18 06:40:06;;;;;;;184.32;14.02;;;11.10;99.90;;;;;;5069672;28;20123;-77
2022/10/18 06:42:32;;;;;;;119.45;10.73;;;11.00;99.90;;;;;;5053009;28;20479;-77
2022/10/18 06:44:59;;;;;;;233.93;16.70;;;11.10;99.90;;;;;;5035893;28;20080;-77
2022/10/18 06:47:24;;;;;;;178.70;12.95;;;11.00;99.90;;;;;;5069809;28;20111;-77
2022/10/18 06:49:50;;;;;;;162.50;13.55;;;11.10;99.90;;;;;;5069248;28;20043;-77
2022/10/18 06:52:17;;;;;;;184.37;14.57;;;11.10;99.90;;;;;;5069677;28;20058;-77
2022/10/18 06:54:42;;;;;;;;;;;11.10;99.90;;;;;;5052458;28;20650;-77
2022/10/18 06:57:08;;;;;;;241.77;18.00;;;11.10;99.90;;;;;;5053064;28;19916;-78
2022/10/18 06:59:34;;;;;;;177.30;12.48;;;11.20;99.90;;;;;;5052941;28;20067;-77
2022/10/18 07:02:00;;;;;;;212.32;14.70;;;11.10;99.90;;;;;;5069378;28;20442;-78
2022/10/18 07:04:29;;;;;;;224.55;15.63;;;11.10;99.90;;;;;;5053231;28;20361;-78
2022/10/18 07:06:55;;;;;;;180.45;12.90;;;11.10;99.90;;;;;;5052541;28;20028;-78
2022/10/18 07:09:21;;;;;;;167.77;11.82;;;11.10;99.90;;;;;;5069784;28;20045;-78
2022/10/18 07:11:46;;;;;;;263.03;18.80;;;11.10;99.90;;;;;;5055134;28;20044;-78
2022/10/18 07:14:12;;;;;;;133.98;10.80;;;11.10;99.90;;;;;;5056534;28;20047;-78
2022/10/18 07:16:38;;;;;;;76.82;8.27;;;11.20;99.90;;;;;;5073387;28;20055;-77
2022/10/18 07:19:03;;;;;;;71.43;9.27;;;11.20;99.90;;;;;;5073125;28;20119;-78
2022/10/18 07:21:30;;;;;;;81.40;8.68;;;11.20;99.90;;;;;;5070924;28;20352;-78
2022/10/18 07:23:56;;;;;;;59.33;8.30;;;11.20;99.90;;;;;;5072958;28;20115;-77
2022/10/18 07:26:26;;;;;;;84.32;8.90;;;11.20;99.90;;;;;;5040174;28;20044;-78
2022/10/18 07:29:01;;;;;;;62.25;7.93;;;11.30;99.90;;;;;;5070877;28;20560;-78
2022/10/18 07:31:27;;;;;;;66.70;8.38;;;11.30;99.90;;;;;;5073329;28;20037;-78
2022/10/18 07:33:53;;;;;;;89.38;9.43;;;11.30;99.90;;;;;;5072675;28;20102;-78
2022/10/18 07:36:23;;;;;;;87.43;9.40;;;11.30;99.90;;;;;;5072744;28;20040;-78
2022/10/18 07:38:50;;;;;;;51.70;7.90;;;11.50;99.90;;;;;;5072307;28;20040;-78
2022/10/18 07:41:17;;;;;;;53.38;7.97;;;11.60;99.90;;;;;;5072852;28;20036;-78
2022/10/18 07:43:45;;;;;;;34.97;7.13;;;11.70;99.90;;;;;;5055484;28;20050;-78
2022/10/18 07:46:12;;;;;;;33.83;7.20;;;11.70;99.90;;;;;;5072741;28;20043;-78
2022/10/18 07:48:38;;;;;;;31.27;6.13;;;11.80;99.90;;;;;;5055989;28;20443;-78
2022/10/18 07:51:05;;;;;;;26.80;6.30;;;12.00;99.90;;;;;;5072210;28;20034;-78
2022/10/18 07:53:33;;;;;;;18.50;5.80;;;12.10;99.90;;;;;;5072932;28;20044;-78
2022/10/18 07:56:00;;;;;;;24.13;6.82;;;12.30;99.90;;;;;;5072150;28;20087;-78
2022/10/18 07:58:26;;;;;;;35.47;7.07;;;12.40;99.90;;;;;;5056263;28;20044;-78
2022/10/18 08:00:52;;;;;;;19.10;6.13;;;12.60;99.90;;;;;;5072576;28;20105;-78
2022/10/18 08:03:18;;;;;;;9.40;5.63;;;12.80;99.90;;;;;;5073045;28;20033;-78
2022/10/18 08:05:49;;;;;;;11.27;5.38;;;13.20;99.90;;;;;;5072614;28;20120;-78
2022/10/18 08:08:15;;;;;;;11.23;5.45;;;13.90;99.90;;;;;;5055873;28;20044;-78
2022/10/18 08:10:40;;;;;;;6.77;4.90;;;14.50;99.90;;;;;;5072661;28;20400;-79
2022/10/18 08:13:06;;;;;;;4.33;3.90;;;15.20;99.90;;;;;;5072211;28;20806;-79
2022/10/18 08:15:32;;;;;;;8.55;4.18;;;15.90;99.90;;;;;;5072524;28;20638;-79
2022/10/18 08:17:58;;;;;;;7.63;4.30;;;16.30;99.90;;;;;;5055789;28;20028;-79
2022/10/18 08:20:23;;;;;;;5.53;3.83;;;16.80;99.90;;;;;;5072523;28;20040;-79
2022/10/18 08:22:50;;;;;;;4.65;3.67;;;17.50;99.90;;;;;;5038242;28;20048;-78
2022/10/18 08:25:16;;;;;;;5.03;3.72;;;18.00;99.90;;;;;;5039207;28;20039;-79
2022/10/18 08:27:41;;;;;;;6.65;3.50;;;18.30;99.90;;;;;;5055560;28;20063;-79
2022/10/18 08:30:08;;;;;;;3.80;2.90;;;18.50;99.90;;;;;;5071856;28;20040;-79
2022/10/18 08:32:34;;;;;;;6.15;2.97;;;18.80;99.90;;;;;;5072708;28;20044;-79
2022/10/18 08:35:00;;;;;;;;;;;19.30;99.90;;;;;;5071936;28;20055;-80
2022/10/18 08:37:26;;;;;;;5.03;2.30;;;19.70;99.90;;;;;;5038010;28;19917;-80
2022/10/18 08:39:51;;;;;;;7.55;2.78;;;20.20;99.90;;;;;;5071050;28;20060;-80
2022/10/18 08:42:41;;;;;;;7.43;2.70;;;20.70;99.90;;;;;;5055349;28;20037;-80
2022/10/18 08:45:11;;;;;;;6.82;2.20;;;21.10;99.90;;;;;;5052547;28;20113;-79
2022/10/18 08:47:41;;;;;;;9.43;2.38;;;21.20;99.90;;;;;;5071781;28;20119;-80
2022/10/18 08:50:22;;;;;;;5.10;1.77;;;21.80;99.90;;;;;;5071194;28;20044;-80
2022/10/18 08:53:22;;;;;;;7.30;2.17;;;21.80;99.90;;;;;;5070080;28;20097;-80
2022/10/18 08:56:01;;;;;;;6.63;2.10;;;22.00;99.90;;;;;;5070618;28;20115;-80
2022/10/18 08:58:31;;;;;;;8.48;2.15;;;22.50;99.90;;;;;;5071241;28;20067;-80
2022/10/18 09:01:26;;;;;;;7.15;1.98;;;22.50;99.90;;;;;;5054965;28;20040;-80
2022/10/18 09:04:31;;;;;;;8.80;2.13;;;22.50;99.90;;;;;;5069680;28;20040;-80
2022/10/18 09:07:11;;;;;;;5.75;2.17;;;22.40;99.90;;;;;;5070274;28;20043;-80
2022/10/18 09:09:45;;;;;;;7.47;1.85;;;22.60;99.90;;;;;;5055075;28;20445;-80
2022/10/18 09:12:34;;;;;;;6.18;1.90;;;22.70;99.90;;;;;;5054312;28;20033;-80
2022/10/18 09:15:16;;;;;;;4.75;1.67;;;22.80;99.90;;;;;;5069229;28;20044;-80
2022/10/18 09:18:12;;;;;;;7.45;1.73;;;22.90;99.90;;;;;;5054351;28;20119;-80
2022/10/18 09:20:47;;;;;;;6.70;1.75;;;23.50;99.90;;;;;;5071150;28;20043;-81
2022/10/18 09:23:19;;;;;;;7.20;2.00;;;23.40;99.90;;;;;;5071203;28;20430;-80
2022/10/18 09:25:48;;;;;;;7.30;1.60;;;23.90;99.90;;;;;;5067043;28;20076;-81
2022/10/18 09:28:35;;;;;;;8.10;1.77;;;24.40;99.90;;;;;;5071202;28;20040;-81
2022/10/18 09:31:17;;;;;;;6.72;1.58;;;24.80;99.90;;;;;;5051941;28;20097;-81
2022/10/18 09:33:57;;;;;;;7.65;1.60;;;24.90;99.90;;;;;;5052464;28;20101;-81
2022/10/18 09:36:26;;;;;;;7.82;1.67;;;25.10;99.90;;;;;;5053095;28;20041;-80
2022/10/18 09:38:57;;;;;;;10.60;1.80;;;24.80;99.90;;;;;;5070278;28;20311;-81
2022/10/18 09:41:47;;;;;;;7.43;1.60;;;24.90;99.90;;;;;;5071145;28;20432;-81
2022/10/18 09:44:59;;;;;;;7.00;1.30;;;25.20;99.90;;;;;;5054011;28;20040;-81
2022/10/18 09:47:39;;;;;;;7.25;1.50;;;25.00;99.90;;;;;;5006016;28;20037;-81
2022/10/18 09:50:26;;;;;;;10.00;2.28;;;24.50;99.90;;;;;;5062950;28;20115;-81
2022/10/18 09:53:18;;;;;;;8.57;1.30;;;25.00;99.90;;;;;;5053267;28;20040;-81
2022/10/18 09:56:05;;;;;;;6.88;1.60;;;25.30;99.90;;;;;;5069773;28;20487;-81
2022/10/18 09:58:44;;;;;;;9.25;1.40;;;25.70;99.90;;;;;;5070122;28;20044;-81
2022/10/18 10:01:14;;;;;;;5.72;1.38;;;25.60;99.90;;;;;;5051377;28;20036;-81
2022/10/18 10:03:41;;;;;;;9.43;1.98;;;25.60;99.90;;;;;;5069232;28;20048;-81
2022/10/18 10:06:15;;;;;;;7.18;1.42;;;25.50;99.90;;;;;;5069282;28;20040;-81
2022/10/18 10:08:53;;;;;;;8.35;1.50;;;25.50;99.90;;;;;;5067653;28;20032;-81
2022/10/18 10:11:27;;;;;;;6.63;1.38;;;25.60;99.90;;;;;;5054716;28;20040;-81
2022/10/18 10:14:05;;;;;;;10.20;1.48;;;25.50;99.90;;;;;;5053359;28;20035;-81
2022/10/18 10:16:31;;;;;;;6.70;1.05;;;25.30;99.90;;;;;;5070215;28;20066;-81
2022/10/18 10:18:57;;;;;;;6.95;1.48;;;25.30;99.90;;;;;;5036495;28;20108;-81
2022/10/18 10:21:23;;;;;;;7.75;1.52;;;25.10;99.90;;;;;;5054002;28;20532;-81
2022/10/18 10:23:53;;;;;;;8.23;1.50;;;24.90;99.90;;;;;;5020725;28;20048;-80
2022/10/18 10:26:32;;;;;;;7.90;1.17;;;24.30;99.90;;;;;;5070526;28;20396;-81
2022/10/18 10:28:58;;;;;;;6.95;1.40;;;24.10;99.90;;;;;;5069925;28;20044;-80
2022/10/18 10:31:24;;;;;;;6.80;1.00;;;24.10;99.90;;;;;;5070191;28;20043;-80
2022/10/18 10:34:18;;;;;;;5.80;1.25;;;24.20;99.90;;;;;;5069822;28;20037;-81
2022/10/18 10:36:51;;;;;;;7.60;1.58;;;24.60;99.90;;;;;;5067636;28;20069;-80
2022/10/18 10:39:19;;;;;;;10.07;2.55;;;25.10;99.90;;;;;;5069563;28;20055;-81
2022/10/18 10:41:50;;;;;;;8.23;1.13;;;24.80;99.90;;;;;;5053053;28;20045;-80
2022/10/18 10:44:19;;;;;;;9.95;1.45;;;25.10;99.90;;;;;;5069774;28;20047;-81
2022/10/18 10:46:48;;;;;;;6.40;1.33;;;25.60;99.90;;;;;;5056151;28;20484;-81
2022/10/18 10:49:22;;;;;;;7.68;1.38;;;25.60;99.90;;;;;;5073432;28;20051;-80
2022/10/18 10:52:01;;;;;;;7.82;1.30;;;25.60;99.90;;;;;;5073599;28;20110;-81
2022/10/18 10:54:29;;;;;;;4.75;1.10;;;25.40;99.70;;;;;;5074357;28;20503;-80
2022/10/18 10:57:02;;;;;;;9.02;1.38;;;25.30;99.90;;;;;;5071707;28;20098;-81
2022/10/18 10:59:43;;;;;;;7.78;1.23;;;25.30;99.90;;;;;;5074039;28;20421;-80
2022/10/18 11:02:17;;;;;;;9.10;1.60;;;25.80;99.90;;;;;;5071110;28;20090;-81
2022/10/18 11:04:45;;;;;;;8.15;1.45;;;26.30;99.40;;;;;;5073784;28;20048;-80
2022/10/18 11:07:10;;;;;;;6.63;1.00;;;26.70;99.20;;;;;;5073324;28;20116;-81
2022/10/18 11:09:55;;;;;;;8.40;1.25;;;27.40;99.10;;;;;;5074076;28;20119;-81
2022/10/18 11:12:38;;;;;;;6.38;1.00;;;27.70;98.40;;;;;;5073200;28;20045;-81
2022/10/18 11:15:31;;;;;;;4.80;1.08;;;26.90;97.10;;;;;;5054544;28;20049;-80
2022/10/18 11:18:18;;;;;;;8.52;1.17;;;25.40;98.30;;;;;;5070627;28;20090;-81
2022/10/18 11:20:46;;;;;;;;;;;25.20;99.50;;;;;;5073850;28;20041;-80
2022/10/18 11:23:16;;;;;;;5.13;1.00;;;25.40;99.00;;;;;;5055301;28;20299;-81
2022/10/18 11:26:10;;;;;;;5.68;1.23;;;26.20;99.50;;;;;;5073157;28;20048;-80
2022/10/18 11:29:00;;;;;;;7.40;1.30;;;26.50;98.00;;;;;;5057146;28;20044;-80
2022/10/18 11:31:51;;;;;;;4.95;0.82;;;26.80;98.40;;;;;;5071726;28;20445;-80
2022/10/18 11:34:26;;;;;;;3.70;0.82;;;27.20;97.60;;;;;;5054199;28;20047;-80
2022/10/18 11:37:31;;;;;;;6.63;1.05;;;27.40;97.00;;;;;;5072915;28;20044;-81
2022/10/18 11:40:25;;;;;;;4.18;0.77;;;26.50;96.90;;;;;;5054664;28;20476;-81
2022/10/18 11:43:21;;;;;;;5.07;0.90;;;26.60;97.60;;;;;;5071210;28;20047;-78
2022/10/18 11:45:56;;;;;;;6.13;1.67;;;26.60;97.70;;;;;;5071767;28;20071;-79
2022/10/18 11:48:43;;;;;;;7.25;1.20;;;27.10;97.20;;;;;;5070863;28;20066;-80
2022/10/18 11:51:12;;;;;;;6.28;1.10;;;27.50;97.20;;;;;;5071977;28;20115;-80
2022/10/18 11:54:02;;;;;;;4.53;1.00;;;27.50;96.00;;;;;;5073081;28;20045;-79
2022/10/18 11:56:54;;;;;;;6.18;1.00;;;27.20;96.60;;;;;;5073127;28;20373;-80
2022/10/18 11:59:54;;;;;;;5.43;0.82;;;27.20;96.60;;;;;;5054571;28;20072;-80
2022/10/18 12:02:51;;;;;;;7.00;1.15;;;26.40;97.00;;;;;;5072240;28;20036;-79
2022/10/18 12:05:17;;;;;;;5.97;1.23;;;25.40;97.40;;;;;;5072547;28;20472;-79
2022/10/18 12:07:54;;;;;;;6.88;1.17;;;24.80;97.40;;;;;;5072573;28;20115;-79
2022/10/18 12:10:21;;;;;;;8.25;1.33;;;25.00;98.70;;;;;;5051833;28;20040;-79
2022/10/18 12:13:00;;;;;;;7.10;1.38;;;25.60;97.70;;;;;;5072404;28;20102;-79
2022/10/18 12:15:28;;;;;;;8.30;1.42;;;25.60;97.10;;;;;;5071456;28;20036;-79
2022/10/18 12:18:04;;;;;;;6.43;1.30;;;25.90;97.70;;;;;;5072212;28;20423;-80
2022/10/18 12:20:38;;;;;;;6.87;1.37;;;26.50;97.80;;;;;;5072567;28;20070;-80
2022/10/18 12:23:06;;;;;;;9.10;1.15;;;26.30;96.30;;;;;;5055483;28;20028;-80
2022/10/18 12:25:35;;;;;;;6.38;1.00;;;26.50;97.40;;;;;;5072048;28;20476;-80
2022/10/18 12:28:38;;;;;;;5.93;1.20;;;26.80;96.50;;;;;;5054803;28;20147;-80
2022/10/18 12:31:14;;;;;;;6.72;1.25;;;26.60;95.80;;;;;;5069806;28;20068;-80
2022/10/18 12:33:47;;;;;;;6.07;1.00;;;26.30;96.40;;;;;;5069448;28;20044;-80
2022/10/18 12:36:51;;;;;;;7.00;1.30;;;26.50;96.20;;;;;;5054399;28;20094;-80
2022/10/18 12:39:27;;;;;;;4.75;1.50;;;26.50;95.60;;;;;;5052335;28;20133;-79
2022/10/18 12:41:55;;;;;;;6.32;1.10;;;26.10;95.40;;;;;;5068880;28;20041;-79
2022/10/18 12:44:32;;;;;;;7.03;1.33;;;24.70;96.20;;;;;;5054601;28;20043;-79
2022/10/18 12:47:00;;;;;;;8.05;1.38;;;23.90;97.10;;;;;;5069951;28;20041;-80
2022/10/18 12:49:35;;;;;;;5.75;1.35;;;23.20;98.10;;;;;;5068595;28;20040;-79
2022/10/18 12:52:02;;;;;;;7.78;1.23;;;23.20;98.60;;;;;;5071305;28;20059;-80